NOAA Web Site Link Tides and Currents Home Page Transparent placeholder image

PORTS® Data Listing: 8540433 Marcus Hook, PA

CO-OPS RAW PORTS DATA

************************      PRELIMINARY DATA      ************************** 

     THIS RAW DATA HAS NOT BEEN SUBJECT TO THE NATIONAL OCEAN SERVICE'S        
     QUALITY CONTROL OR QUALITY ASSURANCE PROCEDURES AND DOES NOT MEET         
     THE CRITERIA AND STANDARDS OF OFFICIAL NATIONAL OCEAN SERVICE             
     DATA.  IT IS RELEASED FOR LIMITED PUBLIC USE AS PRELIMINARY DATA TO       
     BE USED ONLY WITH APPROPRIATE CAUTION.                                    

************************      PRELIMINARY DATA      ************************** 


       CD   -   Calendar date
       T    -   Time
       TZ   -   Timezone
       PW   -   Predicted water level (feet above MLLW)
       OW   -   Observed water level (feet above MLLW)
       WS   -   Wind speed (knots)
       WD   -   Wind direction (degrees true)
       WG   -   Wind gust (knots)
       AT   -   Air temperature (degrees farenheit)
       WT   -   Water temperature (degrees farenheit)
       AP   -   Air pressure (millibars)
       SA   -   Salinty (PSU - Practical Salinity Units)
       SG   -   Specific gravity
       RH   -   Relative humidity
       AG   -   Air gap (feet)
       VI   -   Visibility (nautical miles)

       ** NOTE **
       A variable that has its data fields filled with "9"s, indicates that
       data was not collected for that sample period.
       **********


STATION NAME: Marcus Hook (8540433)
****************************************************************************************************
    CD       T    TZ    PW     OW    WS   WD   WG    AT    WT    AP    SA    SG     RH    AG   VI
****************************************************************************************************
2018/08/18 01:48 EDT    0.93   1.03 -999 -999 -999  74.3  77.4 1013.8 -9.9 -9.999 -99.9 -99.99 -9.99
2018/08/18 01:54 EDT    1.02   1.07 -999 -999 -999  74.3  77.4 1013.8 -9.9 -9.999 -99.9 -99.99 -9.99
2018/08/18 02:00 EDT    1.12   1.13 -999 -999 -999  74.1  77.4 1013.7 -9.9 -9.999 -99.9 -99.99 -9.99
2018/08/18 02:06 EDT    1.24   1.24 -999 -999 -999  74.5  77.2 1013.6 -9.9 -9.999 -99.9 -99.99 -9.99
2018/08/18 02:12 EDT    1.36   1.38 -999 -999 -999  74.5  77.2 1013.6 -9.9 -9.999 -99.9 -99.99 -9.99
2018/08/18 02:18 EDT    1.48   1.54 -999 -999 -999  75.0  77.4 1013.4 -9.9 -9.999 -99.9 -99.99 -9.99
2018/08/18 02:24 EDT    1.62   1.75 -999 -999 -999  75.0  77.5 1013.1 -9.9 -9.999 -99.9 -99.99 -9.99
2018/08/18 02:30 EDT    1.76   1.93 -999 -999 -999  75.0  77.5 1013.1 -9.9 -9.999 -99.9 -99.99 -9.99
2018/08/18 02:36 EDT    1.90   2.13 -999 -999 -999  75.0  77.4 1013.0 -9.9 -9.999 -99.9 -99.99 -9.99
2018/08/18 02:42 EDT    2.05   2.32 -999 -999 -999  74.8  77.4 1012.9 -9.9 -9.999 -99.9 -99.99 -9.99
2018/08/18 02:48 EDT    2.19   2.50 -999 -999 -999  74.7  77.4 1012.8 -9.9 -9.999 -99.9 -99.99 -9.99
2018/08/18 02:54 EDT    2.34   2.67 -999 -999 -999  74.5  77.4 1012.7 -9.9 -9.999 -99.9 -99.99 -9.99
2018/08/18 03:00 EDT    2.49   2.85 -999 -999 -999  74.1  77.4 1012.6 -9.9 -9.999 -99.9 -99.99 -9.99
2018/08/18 03:06 EDT    2.63   3.05 -999 -999 -999  74.1  77.4 1012.6 -9.9 -9.999 -99.9 -99.99 -9.99
2018/08/18 03:12 EDT    2.78   3.22 -999 -999 -999  74.3  77.4 1012.5 -9.9 -9.999 -99.9 -99.99 -9.99
2018/08/18 03:18 EDT    2.92   3.38 -999 -999 -999  74.5  77.4 1012.4 -9.9 -9.999 -99.9 -99.99 -9.99
2018/08/18 03:24 EDT    3.05   3.54 -999 -999 -999  74.5  77.4 1012.4 -9.9 -9.999 -99.9 -99.99 -9.99
2018/08/18 03:30 EDT    3.19   3.69 -999 -999 -999  74.5  77.4 1012.4 -9.9 -9.999 -99.9 -99.99 -9.99
2018/08/18 03:36 EDT    3.32   3.84 -999 -999 -999  74.3  77.4 1012.4 -9.9 -9.999 -99.9 -99.99 -9.99
2018/08/18 03:42 EDT    3.45   3.99 -999 -999 -999  74.5  77.4 1012.4 -9.9 -9.999 -99.9 -99.99 -9.99
2018/08/18 03:48 EDT    3.58   4.12 -999 -999 -999  74.8  77.4 1012.4 -9.9 -9.999 -99.9 -99.99 -9.99
2018/08/18 03:54 EDT    3.70   4.25 -999 -999 -999  75.4  77.4 1012.5 -9.9 -9.999 -99.9 -99.99 -9.99
2018/08/18 04:00 EDT    3.82   4.38 -999 -999 -999  74.8  77.2 1012.5 -9.9 -9.999 -99.9 -99.99 -9.99
2018/08/18 04:06 EDT    3.93   4.52 -999 -999 -999  74.3  77.2 1012.4 -9.9 -9.999 -99.9 -99.99 -9.99
2018/08/18 04:12 EDT    4.05   4.65 -999 -999 -999  75.2  77.2 1012.6 -9.9 -9.999 -99.9 -99.99 -9.99
2018/08/18 04:18 EDT    4.16   4.77 -999 -999 -999  75.6  77.2 1012.6 -9.9 -9.999 -99.9 -99.99 -9.99
2018/08/18 04:24 EDT    4.27   4.91 -999 -999 -999  75.6  77.2 1012.6 -9.9 -9.999 -99.9 -99.99 -9.99
2018/08/18 04:30 EDT    4.38   5.03 -999 -999 -999  75.7  77.2 1012.6 -9.9 -9.999 -99.9 -99.99 -9.99
2018/08/18 04:36 EDT    4.48   5.14 -999 -999 -999  75.6  77.2 1012.7 -9.9 -9.999 -99.9 -99.99 -9.99
2018/08/18 04:42 EDT    4.59   5.26 -999 -999 -999  75.6  77.2 1012.7 -9.9 -9.999 -99.9 -99.99 -9.99
2018/08/18 04:48 EDT    4.69   5.38 -999 -999 -999  75.4  77.2 1012.7 -9.9 -9.999 -99.9 -99.99 -9.99
2018/08/18 04:54 EDT    4.79   5.48 -999 -999 -999  75.4  77.2 1012.7 -9.9 -9.999 -99.9 -99.99 -9.99
2018/08/18 05:00 EDT    4.88   5.58 -999 -999 -999  75.2  77.2 1012.6 -9.9 -9.999 -99.9 -99.99 -9.99
2018/08/18 05:06 EDT    4.98   5.67 -999 -999 -999  75.2  77.2 1012.5 -9.9 -9.999 -99.9 -99.99 -9.99
2018/08/18 05:12 EDT    5.07   5.76 -999 -999 -999  75.2  77.2 1012.5 -9.9 -9.999 -99.9 -99.99 -9.99
2018/08/18 05:18 EDT    5.16   5.84 -999 -999 -999  75.2  77.2 1012.5 -9.9 -9.999 -99.9 -99.99 -9.99
2018/08/18 05:24 EDT    5.24   5.91 -999 -999 -999  75.4  77.2 1012.5 -9.9 -9.999 -99.9 -99.99 -9.99
2018/08/18 05:30 EDT    5.32   5.98 -999 -999 -999  75.4  77.2 1012.4 -9.9 -9.999 -99.9 -99.99 -9.99
2018/08/18 05:36 EDT    5.40   6.03 -999 -999 -999  75.4  77.2 1012.4 -9.9 -9.999 -99.9 -99.99 -9.99
2018/08/18 05:42 EDT    5.47   6.11 -999 -999 -999  75.4  77.2 1012.4 -9.9 -9.999 -99.9 -99.99 -9.99
2018/08/18 05:48 EDT    5.53   6.13 -999 -999 -999  75.2  77.4 1012.3 -9.9 -9.999 -99.9 -99.99 -9.99
2018/08/18 05:54 EDT    5.59   6.15 -999 -999 -999  75.0  77.2 1012.3 -9.9 -9.999 -99.9 -99.99 -9.99
2018/08/18 06:00 EDT    5.63   6.18 -999 -999 -999  74.8  77.2 1012.0 -9.9 -9.999 -99.9 -99.99 -9.99
2018/08/18 06:06 EDT    5.68   6.23 -999 -999 -999  74.8  77.2 1011.9 -9.9 -9.999 -99.9 -99.99 -9.99
2018/08/18 06:12 EDT    5.71   6.26 -999 -999 -999  75.0  77.2 1011.9 -9.9 -9.999 -99.9 -99.99 -9.99
2018/08/18 06:18 EDT    5.73   6.27 -999 -999 -999  75.0  77.2 1011.9 -9.9 -9.999 -99.9 -99.99 -9.99
2018/08/18 06:24 EDT    5.75   6.28 -999 -999 -999  75.2  77.2 1012.0 -9.9 -9.999 -99.9 -99.99 -9.99
2018/08/18 06:30 EDT    5.76   6.30 -999 -999 -999  74.8  77.4 1012.0 -9.9 -9.999 -99.9 -99.99 -9.99
2018/08/18 06:36 EDT    5.76   6.29 -999 -999 -999  75.0  77.4 1012.1 -9.9 -9.999 -99.9 -99.99 -9.99
2018/08/18 06:42 EDT    5.75   6.27 -999 -999 -999  75.2  77.4 1012.1 -9.9 -9.999 -99.9 -99.99 -9.99
2018/08/18 06:48 EDT    5.73   6.23 -999 -999 -999  75.4  77.4 1012.2 -9.9 -9.999 -99.9 -99.99 -9.99
2018/08/18 06:54 EDT    5.71   6.20 -999 -999 -999  75.4  77.4 1012.1 -9.9 -9.999 -99.9 -99.99 -9.99
2018/08/18 07:00 EDT    5.67   6.16 -999 -999 -999  75.4  77.4 1012.2 -9.9 -9.999 -99.9 -99.99 -9.99
2018/08/18 07:06 EDT    5.63   6.10 -999 -999 -999  75.4  77.4 1012.2 -9.9 -9.999 -99.9 -99.99 -9.99
2018/08/18 07:12 EDT    5.59   6.02 -999 -999 -999  75.2  77.4 1012.2 -9.9 -9.999 -99.9 -99.99 -9.99
2018/08/18 07:18 EDT    5.53   5.96 -999 -999 -999  75.4  77.4 1012.2 -9.9 -9.999 -99.9 -99.99 -9.99
2018/08/18 07:24 EDT    5.47   5.89 -999 -999 -999  75.6  77.4 1012.2 -9.9 -9.999 -99.9 -99.99 -9.99
2018/08/18 07:30 EDT    5.41   5.79 -999 -999 -999  75.7  77.4 1012.2 -9.9 -9.999 -99.9 -99.99 -9.99
2018/08/18 07:36 EDT    5.34   5.71 -999 -999 -999  75.7  77.4 1012.2 -9.9 -9.999 -99.9 -99.99 -9.99
2018/08/18 07:42 EDT    5.26   5.60 -999 -999 -999  75.7  77.4 1012.2 -9.9 -9.999 -99.9 -99.99 -9.99
2018/08/18 07:48 EDT    5.18   5.52 -999 -999 -999  75.7  77.4 1012.3 -9.9 -9.999 -99.9 -99.99 -9.99
2018/08/18 07:54 EDT    5.10   5.41 -999 -999 -999  75.7  77.4 1012.1 -9.9 -9.999 -99.9 -99.99 -9.99
2018/08/18 08:00 EDT    5.01   5.32 -999 -999 -999  75.9  77.7 1012.0 -9.9 -9.999 -99.9 -99.99 -9.99
2018/08/18 08:06 EDT    4.92   5.22 -999 -999 -999  75.9  78.1 1012.0 -9.9 -9.999 -99.9 -99.99 -9.99
2018/08/18 08:12 EDT    4.83   5.13 -999 -999 -999  75.9  77.9 1012.0 -9.9 -9.999 -99.9 -99.99 -9.99
2018/08/18 08:18 EDT    4.74   5.03 -999 -999 -999  75.9  77.9 1012.0 -9.9 -9.999 -99.9 -99.99 -9.99
2018/08/18 08:24 EDT    4.64   4.89 -999 -999 -999  75.9  78.3 1012.0 -9.9 -9.999 -99.9 -99.99 -9.99
2018/08/18 08:30 EDT    4.55   4.82 -999 -999 -999  76.3  78.6 1012.0 -9.9 -9.999 -99.9 -99.99 -9.99
2018/08/18 08:36 EDT    4.45   4.72 -999 -999 -999  76.6  78.3 1012.0 -9.9 -9.999 -99.9 -99.99 -9.99
2018/08/18 08:42 EDT    4.35   4.62 -999 -999 -999  76.6  78.3 1012.0 -9.9 -9.999 -99.9 -99.99 -9.99
2018/08/18 08:48 EDT    4.25   4.52 -999 -999 -999  76.6  78.3 1012.1 -9.9 -9.999 -99.9 -99.99 -9.99
2018/08/18 08:54 EDT    4.15   4.42 -999 -999 -999  76.5  78.6 1012.1 -9.9 -9.999 -99.9 -99.99 -9.99
2018/08/18 09:00 EDT    4.04   4.31 -999 -999 -999  76.3  78.3 1012.0 -9.9 -9.999 -99.9 -99.99 -9.99
2018/08/18 09:06 EDT    3.94   4.21 -999 -999 -999  76.6  78.6 1011.8 -9.9 -9.999 -99.9 -99.99 -9.99
2018/08/18 09:12 EDT    3.83   4.12 -999 -999 -999  76.5  78.4 1011.8 -9.9 -9.999 -99.9 -99.99 -9.99
2018/08/18 09:18 EDT    3.73   4.02 -999 -999 -999  76.5  78.4 1011.8 -9.9 -9.999 -99.9 -99.99 -9.99
2018/08/18 09:24 EDT    3.63   3.92 -999 -999 -999  76.5  78.1 1011.7 -9.9 -9.999 -99.9 -99.99 -9.99
2018/08/18 09:30 EDT    3.52   3.82 -999 -999 -999  76.8  78.3 1011.7 -9.9 -9.999 -99.9 -99.99 -9.99
2018/08/18 09:36 EDT    3.42   3.73 -999 -999 -999  76.8  77.9 1011.7 -9.9 -9.999 -99.9 -99.99 -9.99
2018/08/18 09:42 EDT    3.32   3.63 -999 -999 -999  77.0  78.1 1011.8 -9.9 -9.999 -99.9 -99.99 -9.99
2018/08/18 09:48 EDT    3.21   3.53 -999 -999 -999  77.5  77.7 1011.8 -9.9 -9.999 -99.9 -99.99 -9.99
2018/08/18 09:54 EDT    3.11   3.45 -999 -999 -999  77.5  77.7 1011.7 -9.9 -9.999 -99.9 -99.99 -9.99
2018/08/18 10:00 EDT    3.01   3.35 -999 -999 -999  77.4  77.7 1011.7 -9.9 -9.999 -99.9 -99.99 -9.99
2018/08/18 10:06 EDT    2.91   3.25 -999 -999 -999  77.4  77.7 1011.7 -9.9 -9.999 -99.9 -99.99 -9.99
2018/08/18 10:12 EDT    2.82   3.15 -999 -999 -999  77.7  78.1 1011.6 -9.9 -9.999 -99.9 -99.99 -9.99
2018/08/18 10:18 EDT    2.72   3.07 -999 -999 -999  77.7  78.1 1011.6 -9.9 -9.999 -99.9 -99.99 -9.99
2018/08/18 10:24 EDT    2.63   2.99 -999 -999 -999  77.7  77.7 1011.6 -9.9 -9.999 -99.9 -99.99 -9.99
2018/08/18 10:30 EDT    2.53   2.89 -999 -999 -999  77.9  77.9 1011.6 -9.9 -9.999 -99.9 -99.99 -9.99
2018/08/18 10:36 EDT    2.44   2.79 -999 -999 -999  78.1  77.9 1011.6 -9.9 -9.999 -99.9 -99.99 -9.99
2018/08/18 10:42 EDT    2.35   2.71 -999 -999 -999  78.3  77.7 1011.6 -9.9 -9.999 -99.9 -99.99 -9.99
2018/08/18 10:48 EDT    2.27   2.63 -999 -999 -999  78.4  77.7 1011.5 -9.9 -9.999 -99.9 -99.99 -9.99
2018/08/18 10:54 EDT    2.18   2.53 -999 -999 -999  78.6  77.7 1011.5 -9.9 -9.999 -99.9 -99.99 -9.99
2018/08/18 11:00 EDT    2.09   2.43 -999 -999 -999  79.0  77.7 1011.4 -9.9 -9.999 -99.9 -99.99 -9.99
2018/08/18 11:06 EDT    2.01   2.35 -999 -999 -999  79.2  77.7 1011.4 -9.9 -9.999 -99.9 -99.99 -9.99
2018/08/18 11:12 EDT    1.92   2.25 -999 -999 -999  79.2  77.7 1011.4 -9.9 -9.999 -99.9 -99.99 -9.99
2018/08/18 11:18 EDT    1.84   2.18 -999 -999 -999  79.2  77.7 1011.3 -9.9 -9.999 -99.9 -99.99 -9.99
2018/08/18 11:24 EDT    1.76   2.08 -999 -999 -999  79.5  77.7 1011.3 -9.9 -9.999 -99.9 -99.99 -9.99
2018/08/18 11:30 EDT    1.67   2.00 -999 -999 -999  79.7  77.5 1011.2 -9.9 -9.999 -99.9 -99.99 -9.99
2018/08/18 11:36 EDT    1.59   1.92 -999 -999 -999  80.1  78.1 1011.2 -9.9 -9.999 -99.9 -99.99 -9.99
2018/08/18 11:42 EDT    1.50   1.83 -999 -999 -999  80.4  77.9 1011.1 -9.9 -9.999 -99.9 -99.99 -9.99
2018/08/18 11:48 EDT    1.42   1.73 -999 -999 -999  80.8  77.7 1011.0 -9.9 -9.999 -99.9 -99.99 -9.99
2018/08/18 11:54 EDT    1.33   1.66 -999 -999 -999  81.1  77.7 1011.0 -9.9 -9.999 -99.9 -99.99 -9.99
2018/08/18 12:00 EDT    1.25   1.58 -999 -999 -999  81.1  77.9 1011.0 -9.9 -9.999 -99.9 -99.99 -9.99
2018/08/18 12:06 EDT    1.17   1.51 -999 -999 -999  81.5  77.7 1010.8 -9.9 -9.999 -99.9 -99.99 -9.99
2018/08/18 12:12 EDT    1.08   1.43 -999 -999 -999  81.7  77.7 1010.9 -9.9 -9.999 -99.9 -99.99 -9.99
2018/08/18 12:18 EDT    1.00   1.36 -999 -999 -999  84.2  77.9 1010.7 -9.9 -9.999 -99.9 -99.99 -9.99
2018/08/18 12:24 EDT    0.92   1.28 -999 -999 -999  84.2  77.9 1010.7 -9.9 -9.999 -99.9 -99.99 -9.99
2018/08/18 12:30 EDT    0.85   1.19 -999 -999 -999  84.4  77.7 1010.7 -9.9 -9.999 -99.9 -99.99 -9.99
2018/08/18 12:36 EDT    0.78   1.13 -999 -999 -999  84.6  77.5 1010.7 -9.9 -9.999 -99.9 -99.99 -9.99
2018/08/18 12:42 EDT    0.71   1.05 -999 -999 -999  84.4  77.5 1010.6 -9.9 -9.999 -99.9 -99.99 -9.99
2018/08/18 12:48 EDT    0.65   0.98 -999 -999 -999  84.2  77.7 1010.5 -9.9 -9.999 -99.9 -99.99 -9.99
2018/08/18 12:54 EDT    0.60   0.93 -999 -999 -999  84.7  77.7 1010.5 -9.9 -9.999 -99.9 -99.99 -9.99
2018/08/18 13:00 EDT    0.55   0.87 -999 -999 -999  85.3  77.7 1010.5 -9.9 -9.999 -99.9 -99.99 -9.99
2018/08/18 13:06 EDT    0.52   0.79 -999 -999 -999  84.9  77.9 1010.5 -9.9 -9.999 -99.9 -99.99 -9.99
2018/08/18 13:12 EDT    0.49   0.75 -999 -999 -999  84.9  77.7 1010.4 -9.9 -9.999 -99.9 -99.99 -9.99
2018/08/18 13:18 EDT    0.48   0.69 -999 -999 -999  84.9  77.7 1010.3 -9.9 -9.999 -99.9 -99.99 -9.99
2018/08/18 13:24 EDT    0.47   0.66 -999 -999 -999  83.5  77.7 1010.2 -9.9 -9.999 -99.9 -99.99 -9.99
2018/08/18 13:30 EDT    0.48   0.62 -999 -999 -999  82.8  77.9 1010.1 -9.9 -9.999 -99.9 -99.99 -9.99
2018/08/18 13:36 EDT    0.50   0.60 -999 -999 -999  82.0  78.1 1010.2 -9.9 -9.999 -99.9 -99.99 -9.99
2018/08/18 13:42 EDT    0.53   0.62 -999 -999 -999  82.0  78.1 1010.2 -9.9 -9.999 -99.9 -99.99 -9.99
2018/08/18 13:48 EDT    0.58   0.65 -999 -999 -999  83.5  77.9 1010.0 -9.9 -9.999 -99.9 -99.99 -9.99
2018/08/18 13:54 EDT    0.64   0.68 -999 -999 -999  83.5  77.9 1010.0 -9.9 -9.999 -99.9 -99.99 -9.99
2018/08/18 14:00 EDT    0.71   0.74 -999 -999 -999  83.3  77.9 1010.0 -9.9 -9.999 -99.9 -99.99 -9.99
2018/08/18 14:06 EDT    0.80   0.83 -999 -999 -999  85.3  78.6 1009.9 -9.9 -9.999 -99.9 -99.99 -9.99
2018/08/18 14:12 EDT    0.89   0.94 -999 -999 -999  86.0  80.1 1009.8 -9.9 -9.999 -99.9 -99.99 -9.99
2018/08/18 14:18 EDT    1.00   1.06 -999 -999 -999  86.0  79.2 1009.7 -9.9 -9.999 -99.9 -99.99 -9.99
2018/08/18 14:24 EDT    1.12   1.21 -999 -999 -999  85.6  78.3 1009.6 -9.9 -9.999 -99.9 -99.99 -9.99
2018/08/18 14:30 EDT    1.25   1.37 -999 -999 -999  86.2  78.1 1009.6 -9.9 -9.999 -99.9 -99.99 -9.99
2018/08/18 14:36 EDT    1.38   1.53 -999 -999 -999  84.2  78.1 1009.4 -9.9 -9.999 -99.9 -99.99 -9.99
2018/08/18 14:42 EDT    1.52   1.72 -999 -999 -999  84.2  78.1 1009.4 -9.9 -9.999 -99.9 -99.99 -9.99
2018/08/18 14:48 EDT    1.67   1.91 -999 -999 -999  83.7  78.3 1009.2 -9.9 -9.999 -99.9 -99.99 -9.99
2018/08/18 14:54 EDT    1.83   2.10 -999 -999 -999  84.0  78.3 1009.0 -9.9 -9.999 -99.9 -99.99 -9.99
2018/08/18 15:00 EDT    1.98   2.31 -999 -999 -999  85.3  78.1 1009.1 -9.9 -9.999 -99.9 -99.99 -9.99
2018/08/18 15:06 EDT    2.14   2.48 -999 -999 -999  84.7  77.9 1009.0 -9.9 -9.999 -99.9 -99.99 -9.99
2018/08/18 15:12 EDT    2.30   2.66 -999 -999 -999  85.3  78.1 1009.0 -9.9 -9.999 -99.9 -99.99 -9.99
2018/08/18 15:18 EDT    2.46   2.83 -999 -999 -999  83.5  78.1 1009.0 -9.9 -9.999 -99.9 -99.99 -9.99
2018/08/18 15:24 EDT    2.62   3.00 -999 -999 -999  85.3  78.3 1008.9 -9.9 -9.999 -99.9 -99.99 -9.99
2018/08/18 15:30 EDT    2.78   3.17 -999 -999 -999  85.8  78.3 1009.0 -9.9 -9.999 -99.9 -99.99 -9.99
2018/08/18 15:36 EDT    2.93   3.32 -999 -999 -999  86.7  78.1 1008.9 -9.9 -9.999 -99.9 -99.99 -9.99
2018/08/18 15:42 EDT    3.08   3.48 -999 -999 -999  83.5  78.3 1008.9 -9.9 -9.999 -99.9 -99.99 -9.99
2018/08/18 15:48 EDT    3.23   3.65 -999 -999 -999  82.2  78.3 1008.7 -9.9 -9.999 -99.9 -99.99 -9.99
2018/08/18 15:54 EDT    3.38   3.79 -999 -999 -999  83.5  78.1 1008.6 -9.9 -9.999 -99.9 -99.99 -9.99
2018/08/18 16:00 EDT    3.52   3.95 -999 -999 -999  83.3  78.1 1008.5 -9.9 -9.999 -99.9 -99.99 -9.99
2018/08/18 16:06 EDT    3.66   4.11 -999 -999 -999  83.3  78.1 1008.5 -9.9 -9.999 -99.9 -99.99 -9.99
2018/08/18 16:12 EDT    3.80   4.27 -999 -999 -999  82.9  77.9 1008.5 -9.9 -9.999 -99.9 -99.99 -9.99
2018/08/18 16:18 EDT    3.93   4.42 -999 -999 -999  82.8  77.9 1008.6 -9.9 -9.999 -99.9 -99.99 -9.99
2018/08/18 16:24 EDT    4.06   4.57 -999 -999 -999  83.1  77.9 1008.6 -9.9 -9.999 -99.9 -99.99 -9.99
2018/08/18 16:30 EDT    4.18   4.71 -999 -999 -999  83.5  77.9 1009.2 -9.9 -9.999 -99.9 -99.99 -9.99
2018/08/18 16:36 EDT    4.31   4.85 -999 -999 -999  79.2  77.9 1009.4 -9.9 -9.999 -99.9 -99.99 -9.99
2018/08/18 16:42 EDT    4.43   4.97 -999 -999 -999  75.9  77.7 1009.3 -9.9 -9.999 -99.9 -99.99 -9.99
2018/08/18 16:48 EDT    4.54   5.10 -999 -999 -999  75.4  77.7 1009.1 -9.9 -9.999 -99.9 -99.99 -9.99
2018/08/18 16:54 EDT    4.66   5.23 -999 -999 -999  75.6  77.7 1009.0 -9.9 -9.999 -99.9 -99.99 -9.99
2018/08/18 17:00 EDT    4.77   5.35 -999 -999 -999  75.4  77.7 1009.0 -9.9 -9.999 -99.9 -99.99 -9.99
2018/08/18 17:06 EDT    4.89   5.49 -999 -999 -999  75.6  77.5 1008.9 -9.9 -9.999 -99.9 -99.99 -9.99
2018/08/18 17:12 EDT    5.00   5.62 -999 -999 -999  76.3  77.5 1008.7 -9.9 -9.999 -99.9 -99.99 -9.99
2018/08/18 17:18 EDT    5.10   5.75 -999 -999 -999  76.5  77.5 1008.6 -9.9 -9.999 -99.9 -99.99 -9.99
2018/08/18 17:24 EDT    5.21   5.86 -999 -999 -999  76.6  77.5 1008.6 -9.9 -9.999 -99.9 -99.99 -9.99
2018/08/18 17:30 EDT    5.31   5.95 -999 -999 -999  77.2  77.5 1008.6 -9.9 -9.999 -99.9 -99.99 -9.99
2018/08/18 17:36 EDT    5.41   6.03 -999 -999 -999  77.2  77.5 1008.6 -9.9 -9.999 -99.9 -99.99 -9.99
2018/08/18 17:42 EDT    5.51   6.14 -999 -999 -999  77.5  77.5 1008.7 -9.9 -9.999 -99.9 -99.99 -9.99
2018/08/18 17:48 EDT    5.60   6.24 -999 -999 -999  77.4  77.5 1008.9 -9.9 -9.999 -99.9 -99.99 -9.99
2018/08/18 17:54 EDT    5.69   6.33 -999 -999 -999  77.7  77.5 1009.0 -9.9 -9.999 -99.9 -99.99 -9.99
2018/08/18 18:00 EDT    5.78   6.39 -999 -999 -999  78.6  77.7 1009.0 -9.9 -9.999 -99.9 -99.99 -9.99
2018/08/18 18:06 EDT    5.85   6.46 -999 -999 -999  79.5  77.7 1008.9 -9.9 -9.999 -99.9 -99.99 -9.99
2018/08/18 18:12 EDT    5.93   6.52 -999 -999 -999  79.7  77.7 1008.9 -9.9 -9.999 -99.9 -99.99 -9.99
2018/08/18 18:18 EDT    5.99   6.58 -999 -999 -999  79.9  77.7 1009.0 -9.9 -9.999 -99.9 -99.99 -9.99
2018/08/18 18:24 EDT    6.05   6.64 -999 -999 -999  80.1  77.9 1009.0 -9.9 -9.999 -99.9 -99.99 -9.99
2018/08/18 18:30 EDT    6.10   6.68 -999 -999 -999  79.9  77.9 1009.0 -9.9 -9.999 -99.9 -99.99 -9.99
2018/08/18 18:36 EDT    6.14   6.71 -999 -999 -999  79.9  77.9 1009.0 -9.9 -9.999 -99.9 -99.99 -9.99
2018/08/18 18:42 EDT    6.18   6.74 -999 -999 -999  78.8  77.9 1009.2 -9.9 -9.999 -99.9 -99.99 -9.99
2018/08/18 18:48 EDT    6.20   6.77 -999 -999 -999  79.0  77.9 1009.2 -9.9 -9.999 -99.9 -99.99 -9.99
2018/08/18 18:54 EDT    6.22   6.79 -999 -999 -999  78.8  77.9 1009.2 -9.9 -9.999 -99.9 -99.99 -9.99
2018/08/18 19:00 EDT    6.23   6.80 -999 -999 -999  79.0  77.9 1009.1 -9.9 -9.999 -99.9 -99.99 -9.99
2018/08/18 19:06 EDT    6.23   6.79 -999 -999 -999  79.0  77.9 1009.1 -9.9 -9.999 -99.9 -99.99 -9.99
2018/08/18 19:12 EDT    6.22   6.79 -999 -999 -999  79.0  77.9 1009.2 -9.9 -9.999 -99.9 -99.99 -9.99
2018/08/18 19:18 EDT    6.21   6.78 -999 -999 -999  79.0  77.9 1009.2 -9.9 -9.999 -99.9 -99.99 -9.99
2018/08/18 19:24 EDT    6.18   6.74 -999 -999 -999  79.0  77.9 1009.3 -9.9 -9.999 -99.9 -99.99 -9.99
2018/08/18 19:30 EDT    6.15   6.70 -999 -999 -999  78.8  77.9 1009.4 -9.9 -9.999 -99.9 -99.99 -9.99
2018/08/18 19:36 EDT    6.11   6.66 -999 -999 -999  78.6  77.9 1009.4 -9.9 -9.999 -99.9 -99.99 -9.99
2018/08/18 19:42 EDT    6.07 -99.99 -999 -999 -999 -99.9 -99.9 -999.9 -9.9 -9.999 -99.9 -99.99 -9.99
2018/08/18 19:48 EDT    6.02 -99.99 -999 -999 -999 -99.9 -99.9 -999.9 -9.9 -9.999 -99.9 -99.99 -9.99
2018/08/18 19:54 EDT    5.96 -99.99 -999 -999 -999 -99.9 -99.9 -999.9 -9.9 -9.999 -99.9 -99.99 -9.99
2018/08/18 20:00 EDT    5.90 -99.99 -999 -999 -999 -99.9 -99.9 -999.9 -9.9 -9.999 -99.9 -99.99 -9.99
2018/08/18 20:06 EDT    5.83 -99.99 -999 -999 -999 -99.9 -99.9 -999.9 -9.9 -9.999 -99.9 -99.99 -9.99
2018/08/18 20:12 EDT    5.76 -99.99 -999 -999 -999 -99.9 -99.9 -999.9 -9.9 -9.999 -99.9 -99.99 -9.99
2018/08/18 20:18 EDT    5.68 -99.99 -999 -999 -999 -99.9 -99.9 -999.9 -9.9 -9.999 -99.9 -99.99 -9.99
2018/08/18 20:24 EDT    5.60 -99.99 -999 -999 -999 -99.9 -99.9 -999.9 -9.9 -9.999 -99.9 -99.99 -9.99
2018/08/18 20:30 EDT    5.52 -99.99 -999 -999 -999 -99.9 -99.9 -999.9 -9.9 -9.999 -99.9 -99.99 -9.99
2018/08/18 20:36 EDT    5.44 -99.99 -999 -999 -999 -99.9 -99.9 -999.9 -9.9 -9.999 -99.9 -99.99 -9.99
2018/08/18 20:42 EDT    5.35 -99.99 -999 -999 -999 -99.9 -99.9 -999.9 -9.9 -9.999 -99.9 -99.99 -9.99
2018/08/18 20:48 EDT    5.26 -99.99 -999 -999 -999 -99.9 -99.9 -999.9 -9.9 -9.999 -99.9 -99.99 -9.99
2018/08/18 20:54 EDT    5.17 -99.99 -999 -999 -999 -99.9 -99.9 -999.9 -9.9 -9.999 -99.9 -99.99 -9.99
2018/08/18 21:00 EDT    5.08 -99.99 -999 -999 -999 -99.9 -99.9 -999.9 -9.9 -9.999 -99.9 -99.99 -9.99
2018/08/18 21:06 EDT    4.99 -99.99 -999 -999 -999 -99.9 -99.9 -999.9 -9.9 -9.999 -99.9 -99.99 -9.99
2018/08/18 21:12 EDT    4.89 -99.99 -999 -999 -999 -99.9 -99.9 -999.9 -9.9 -9.999 -99.9 -99.99 -9.99
2018/08/18 21:18 EDT    4.80 -99.99 -999 -999 -999 -99.9 -99.9 -999.9 -9.9 -9.999 -99.9 -99.99 -9.99
2018/08/18 21:24 EDT    4.70 -99.99 -999 -999 -999 -99.9 -99.9 -999.9 -9.9 -9.999 -99.9 -99.99 -9.99
2018/08/18 21:30 EDT    4.60 -99.99 -999 -999 -999 -99.9 -99.9 -999.9 -9.9 -9.999 -99.9 -99.99 -9.99
2018/08/18 21:36 EDT    4.50 -99.99 -999 -999 -999 -99.9 -99.9 -999.9 -9.9 -9.999 -99.9 -99.99 -9.99
2018/08/18 21:42 EDT    4.40 -99.99 -999 -999 -999 -99.9 -99.9 -999.9 -9.9 -9.999 -99.9 -99.99 -9.99
2018/08/18 21:48 EDT    4.30 -99.99 -999 -999 -999 -99.9 -99.9 -999.9 -9.9 -9.999 -99.9 -99.99 -9.99
2018/08/18 21:54 EDT    4.20 -99.99 -999 -999 -999 -99.9 -99.9 -999.9 -9.9 -9.999 -99.9 -99.99 -9.99
2018/08/18 22:00 EDT    4.10 -99.99 -999 -999 -999 -99.9 -99.9 -999.9 -9.9 -9.999 -99.9 -99.99 -9.99
2018/08/18 22:06 EDT    4.00 -99.99 -999 -999 -999 -99.9 -99.9 -999.9 -9.9 -9.999 -99.9 -99.99 -9.99
2018/08/18 22:12 EDT    3.90 -99.99 -999 -999 -999 -99.9 -99.9 -999.9 -9.9 -9.999 -99.9 -99.99 -9.99
2018/08/18 22:18 EDT    3.80 -99.99 -999 -999 -999 -99.9 -99.9 -999.9 -9.9 -9.999 -99.9 -99.99 -9.99
2018/08/18 22:24 EDT    3.70 -99.99 -999 -999 -999 -99.9 -99.9 -999.9 -9.9 -9.999 -99.9 -99.99 -9.99
2018/08/18 22:30 EDT    3.60 -99.99 -999 -999 -999 -99.9 -99.9 -999.9 -9.9 -9.999 -99.9 -99.99 -9.99
2018/08/18 22:36 EDT    3.51 -99.99 -999 -999 -999 -99.9 -99.9 -999.9 -9.9 -9.999 -99.9 -99.99 -9.99
2018/08/18 22:42 EDT    3.41 -99.99 -999 -999 -999 -99.9 -99.9 -999.9 -9.9 -9.999 -99.9 -99.99 -9.99
2018/08/18 22:48 EDT    3.32 -99.99 -999 -999 -999 -99.9 -99.9 -999.9 -9.9 -9.999 -99.9 -99.99 -9.99
2018/08/18 22:54 EDT    3.22 -99.99 -999 -999 -999 -99.9 -99.9 -999.9 -9.9 -9.999 -99.9 -99.99 -9.99
2018/08/18 23:00 EDT    3.13 -99.99 -999 -999 -999 -99.9 -99.9 -999.9 -9.9 -9.999 -99.9 -99.99 -9.99
2018/08/18 23:06 EDT    3.03 -99.99 -999 -999 -999 -99.9 -99.9 -999.9 -9.9 -9.999 -99.9 -99.99 -9.99
2018/08/18 23:12 EDT    2.94 -99.99 -999 -999 -999 -99.9 -99.9 -999.9 -9.9 -9.999 -99.9 -99.99 -9.99
2018/08/18 23:18 EDT    2.85 -99.99 -999 -999 -999 -99.9 -99.9 -999.9 -9.9 -9.999 -99.9 -99.99 -9.99
2018/08/18 23:24 EDT    2.76 -99.99 -999 -999 -999 -99.9 -99.9 -999.9 -9.9 -9.999 -99.9 -99.99 -9.99
2018/08/18 23:30 EDT    2.67 -99.99 -999 -999 -999 -99.9 -99.9 -999.9 -9.9 -9.999 -99.9 -99.99 -9.99
2018/08/18 23:36 EDT    2.57 -99.99 -999 -999 -999 -99.9 -99.9 -999.9 -9.9 -9.999 -99.9 -99.99 -9.99
2018/08/18 23:42 EDT    2.48 -99.99 -999 -999 -999 -99.9 -99.9 -999.9 -9.9 -9.999 -99.9 -99.99 -9.99
2018/08/18 23:48 EDT    2.39 -99.99 -999 -999 -999 -99.9 -99.9 -999.9 -9.9 -9.999 -99.9 -99.99 -9.99
2018/08/18 23:54 EDT    2.29 -99.99 -999 -999 -999 -99.9 -99.9 -999.9 -9.9 -9.999 -99.9 -99.99 -9.99
2018/08/19 00:00 EDT    2.20 -99.99 -999 -999 -999 -99.9 -99.9 -999.9 -9.9 -9.999 -99.9 -99.99 -9.99
2018/08/19 00:06 EDT    2.10 -99.99 -999 -999 -999 -99.9 -99.9 -999.9 -9.9 -9.999 -99.9 -99.99 -9.99
2018/08/19 00:12 EDT    2.00 -99.99 -999 -999 -999 -99.9 -99.9 -999.9 -9.9 -9.999 -99.9 -99.99 -9.99
2018/08/19 00:18 EDT    1.90 -99.99 -999 -999 -999 -99.9 -99.9 -999.9 -9.9 -9.999 -99.9 -99.99 -9.99
2018/08/19 00:24 EDT    1.80 -99.99 -999 -999 -999 -99.9 -99.9 -999.9 -9.9 -9.999 -99.9 -99.99 -9.99
2018/08/19 00:30 EDT    1.70 -99.99 -999 -999 -999 -99.9 -99.9 -999.9 -9.9 -9.999 -99.9 -99.99 -9.99
2018/08/19 00:36 EDT    1.60 -99.99 -999 -999 -999 -99.9 -99.9 -999.9 -9.9 -9.999 -99.9 -99.99 -9.99
2018/08/19 00:42 EDT    1.50 -99.99 -999 -999 -999 -99.9 -99.9 -999.9 -9.9 -9.999 -99.9 -99.99 -9.99
2018/08/19 00:48 EDT    1.41 -99.99 -999 -999 -999 -99.9 -99.9 -999.9 -9.9 -9.999 -99.9 -99.99 -9.99
2018/08/19 00:54 EDT    1.31 -99.99 -999 -999 -999 -99.9 -99.9 -999.9 -9.9 -9.999 -99.9 -99.99 -9.99
2018/08/19 01:00 EDT    1.22 -99.99 -999 -999 -999 -99.9 -99.9 -999.9 -9.9 -9.999 -99.9 -99.99 -9.99
2018/08/19 01:06 EDT    1.13 -99.99 -999 -999 -999 -99.9 -99.9 -999.9 -9.9 -9.999 -99.9 -99.99 -9.99
2018/08/19 01:12 EDT    1.04 -99.99 -999 -999 -999 -99.9 -99.9 -999.9 -9.9 -9.999 -99.9 -99.99 -9.99
2018/08/19 01:18 EDT    0.96 -99.99 -999 -999 -999 -99.9 -99.9 -999.9 -9.9 -9.999 -99.9 -99.99 -9.99
2018/08/19 01:24 EDT    0.89 -99.99 -999 -999 -999 -99.9 -99.9 -999.9 -9.9 -9.999 -99.9 -99.99 -9.99
2018/08/19 01:30 EDT    0.83 -99.99 -999 -999 -999 -99.9 -99.9 -999.9 -9.9 -9.999 -99.9 -99.99 -9.99
2018/08/19 01:36 EDT    0.77 -99.99 -999 -999 -999 -99.9 -99.9 -999.9 -9.9 -9.999 -99.9 -99.99 -9.99
2018/08/19 01:42 EDT    0.73 -99.99 -999 -999 -999 -99.9 -99.9 -999.9 -9.9 -9.999 -99.9 -99.99 -9.99
2018/08/19 01:48 EDT    0.70 -99.99 -999 -999 -999 -99.9 -99.9 -999.9 -9.9 -9.999 -99.9 -99.99 -9.99

Revised: 10/15/2013
NOAA / National Ocean Service
Web site owner: Center for Operational Oceanographic Products and Services